Time;durP1;ratioP1;P1;durP2;ratioP2;P2;SDS_P1;SDS_P2;PMS_P1;PMS_P2;Temp;Humidity;BMP_temperature;BMP_pressure;BME280_temperature;BME280_humidity;BME280_pressure;Samples;Min_cycle;Max_cycle;Signal;HPM_P1;HPM_P2
2022/08/30 00:04:00;;;;;;;6.13;5.23;;;14.80;99.90;;;;;;8348627;28;20238;-69
2022/08/30 00:08:01;;;;;;;6.97;5.37;;;14.90;99.90;;;;;;8350962;28;20196;-69
2022/08/30 00:12:03;;;;;;;5.67;5.07;;;14.90;99.90;;;;;;8348638;28;20209;-68
2022/08/30 00:16:05;;;;;;;5.90;4.97;;;14.90;99.90;;;;;;8351358;28;20193;-69
2022/08/30 00:20:09;;;;;;;6.07;5.20;;;14.90;99.90;;;;;;8353065;28;20222;-69
2022/08/30 00:24:10;;;;;;;6.00;5.23;;;14.90;99.90;;;;;;8381910;28;20189;-69
2022/08/30 00:28:12;;;;;;;5.63;4.70;;;14.80;68.60;;;;;;8346899;28;20213;-69
2022/08/30 00:32:15;;;;;;;7.20;5.80;;;14.70;56.00;;;;;;8361217;28;20224;-69
2022/08/30 00:36:16;;;;;;;6.87;6.10;;;14.50;99.90;;;;;;8347890;28;20208;-69
2022/08/30 00:40:19;;;;;;;6.63;5.57;;;14.40;99.90;;;;;;8339975;28;20178;-68
2022/08/30 00:44:20;;;;;;;9.80;6.47;;;14.20;99.90;;;;;;8350088;28;20623;-68
2022/08/30 00:48:21;;;;;;;8.30;5.83;;;14.10;99.90;;;;;;8350855;28;20226;-70
2022/08/30 00:52:23;;;;;;;8.27;5.90;;;14.00;99.90;;;;;;8348854;28;20186;-70
2022/08/30 00:56:24;;;;;;;6.63;5.23;;;13.90;99.90;;;;;;8349266;28;20198;-70
2022/08/30 01:00:25;;;;;;;6.87;6.10;;;13.70;99.90;;;;;;8351934;28;20194;-70
2022/08/30 01:04:28;;;;;;;6.57;5.97;;;13.50;99.90;;;;;;8344716;28;20297;-70
2022/08/30 01:08:29;;;;;;;6.73;6.03;;;13.40;99.90;;;;;;8350746;28;20197;-70
2022/08/30 01:12:33;;;;;;;6.30;5.50;;;13.20;99.90;;;;;;8351377;28;20271;-70
2022/08/30 01:16:35;;;;;;;6.33;5.03;;;13.00;99.90;;;;;;8349606;28;20264;-69
2022/08/30 01:20:48;;;;;;;6.93;5.10;;;12.90;99.90;;;;;;8349664;28;20213;-70
2022/08/30 01:24:52;;;;;;;5.60;4.83;;;12.80;99.90;;;;;;8349238;28;20190;-70
2022/08/30 01:28:57;;;;;;;5.53;4.77;;;12.70;99.90;;;;;;8344116;28;20214;-70
2022/08/30 01:33:01;;;;;;;6.63;5.17;;;12.60;99.90;;;;;;8347992;28;20209;-70
2022/08/30 01:37:02;;;;;;;5.60;5.00;;;12.50;99.90;;;;;;8342141;28;20301;-70
2022/08/30 01:41:14;;;;;;;9.20;6.70;;;12.50;99.90;;;;;;8345862;28;20604;-70
2022/08/30 01:45:15;;;;;;;8.77;6.80;;;12.40;99.90;;;;;;8344551;28;20244;-70
2022/08/30 01:49:17;;;;;;;12.20;7.97;;;12.50;99.90;;;;;;8347560;28;20282;-70
2022/08/30 01:53:18;;;;;;;10.67;6.87;;;12.60;99.90;;;;;;8343956;28;20186;-70
2022/08/30 01:57:22;;;;;;;7.27;6.27;;;12.60;99.90;;;;;;8350764;28;20216;-70
2022/08/30 02:01:25;;;;;;;9.57;6.90;;;12.60;99.90;;;;;;8379062;28;20348;-69
2022/08/30 02:05:26;;;;;;;9.50;6.87;;;12.60;99.90;;;;;;8352082;28;20270;-70
2022/08/30 02:09:27;;;;;;;11.30;7.03;;;12.70;99.90;;;;;;8345951;28;20205;-71
2022/08/30 02:13:29;;;;;;;11.33;7.60;;;12.70;99.90;;;;;;8347207;28;20205;-70
2022/08/30 02:17:30;;;;;;;8.10;6.47;;;12.80;99.90;;;;;;8345707;28;20201;-71
2022/08/30 02:21:31;;;;;;;9.10;6.77;;;12.70;99.90;;;;;;8346167;28;20316;-70
2022/08/30 02:25:31;;;;;;;7.47;6.57;;;12.70;99.90;;;;;;8347173;28;20189;-70
2022/08/30 02:29:32;;;;;;;7.50;6.10;;;12.70;99.90;;;;;;8345400;28;20203;-71
2022/08/30 02:33:34;;;;;;;8.37;7.00;;;12.70;99.90;;;;;;8311956;28;20291;-70
2022/08/30 02:37:35;;;;;;;7.97;6.93;;;12.60;99.90;;;;;;8267315;28;20288;-70
2022/08/30 02:41:37;;;;;;;7.77;6.57;;;12.60;99.90;;;;;;8271766;28;20255;-70
2022/08/30 02:45:38;;;;;;;7.90;6.30;;;12.60;99.90;;;;;;8285901;28;20189;-71
2022/08/30 02:49:38;;;;;;;7.40;6.60;;;12.60;99.90;;;;;;8291099;28;20205;-70
2022/08/30 02:53:41;;;;;;;8.30;6.60;;;12.60;99.90;;;;;;8287401;28;20178;-70
2022/08/30 02:57:43;;;;;;;11.27;8.53;;;12.60;99.90;;;;;;8292129;28;20185;-70
2022/08/30 03:01:44;;;;;;;13.37;8.53;;;12.60;99.90;;;;;;8312910;28;20182;-70
2022/08/30 03:05:45;;;;;;;8.53;6.93;;;12.70;99.90;;;;;;8280633;28;20188;-70
2022/08/30 03:09:46;;;;;;;9.63;8.07;;;12.60;99.90;;;;;;8287321;28;20206;-69
2022/08/30 03:13:47;;;;;;;7.97;7.03;;;12.50;99.90;;;;;;8302842;28;20248;-70
2022/08/30 03:17:48;;;;;;;10.07;7.13;;;12.50;99.90;;;;;;8269780;28;20279;-71
2022/08/30 03:21:49;;;;;;;9.63;7.13;;;12.40;99.90;;;;;;8261709;28;20185;-75
2022/08/30 03:25:50;;;;;;;9.03;7.10;;;12.40;99.90;;;;;;8258324;28;20242;-70
2022/08/30 03:29:51;;;;;;;10.33;8.10;;;12.40;99.90;;;;;;8246098;28;20507;-70
2022/08/30 03:33:52;;;;;;;8.33;7.40;;;12.40;99.90;;;;;;8306009;28;20213;-70
2022/08/30 03:37:53;;;;;;;13.03;7.53;;;12.30;99.90;;;;;;8352458;28;20182;-70
2022/08/30 03:41:54;;;;;;;8.30;6.57;;;12.20;99.90;;;;;;8348699;28;20191;-70
2022/08/30 03:45:55;;;;;;;6.90;6.07;;;12.10;99.90;;;;;;8350165;28;20181;-70
2022/08/30 03:49:56;;;;;;;7.27;5.70;;;12.00;99.90;;;;;;8351256;28;20225;-70
2022/08/30 03:53:57;;;;;;;8.10;5.90;;;11.90;99.90;;;;;;8348340;28;20188;-70
2022/08/30 03:57:58;;;;;;;11.13;6.63;;;11.90;99.90;;;;;;8347474;28;20181;-70
2022/08/30 04:01:59;;;;;;;8.03;6.47;;;11.80;99.90;;;;;;8351356;28;20196;-69
2022/08/30 04:06:00;;;;;;;8.60;6.70;;;11.90;99.90;;;;;;8348043;28;20191;-71
2022/08/30 04:10:03;;;;;;;8.63;6.97;;;11.80;99.90;;;;;;8352542;28;20228;-70
2022/08/30 04:14:04;;;;;;;9.87;7.00;;;11.90;99.90;;;;;;8341111;28;20220;-70
2022/08/30 04:18:08;;;;;;;10.73;6.70;;;11.90;99.90;;;;;;8351113;28;20494;-70
2022/08/30 04:22:15;;;;;;;8.70;6.87;;;12.00;99.90;;;;;;8345689;28;20231;-70
2022/08/30 04:26:16;;;;;;;7.17;6.47;;;12.00;99.90;;;;;;8353125;28;20414;-70
2022/08/30 04:30:18;;;;;;;12.40;8.40;;;12.10;99.90;;;;;;8348679;28;20229;-69
2022/08/30 04:34:19;;;;;;;13.80;10.77;;;12.30;99.90;;;;;;8349897;28;20188;-69
2022/08/30 04:38:20;;;;;;;14.73;11.17;;;12.40;99.90;;;;;;8350879;28;20193;-70
2022/08/30 04:42:23;;;;;;;14.23;9.70;;;12.50;99.90;;;;;;8348669;28;20235;-70
2022/08/30 04:46:24;;;;;;;13.67;9.23;;;12.60;99.90;;;;;;8348342;28;20198;-69
2022/08/30 04:50:25;;;;;;;11.83;9.03;;;12.70;99.90;;;;;;8348618;28;20351;-69
2022/08/30 04:54:26;;;;;;;9.20;7.90;;;12.70;99.90;;;;;;8349818;28;20193;-70
2022/08/30 04:58:27;;;;;;;10.70;8.03;;;12.80;99.90;;;;;;8348692;28;20280;-69
2022/08/30 05:02:28;;;;;;;10.20;7.80;;;12.90;99.90;;;;;;8346467;28;20192;-70
2022/08/30 05:06:30;;;;;;;10.77;7.53;;;13.00;99.90;;;;;;8347516;28;20190;-70
2022/08/30 05:10:31;;;;;;;11.23;7.13;;;13.10;99.90;;;;;;8348103;28;20233;-69
2022/08/30 05:14:32;;;;;;;9.07;7.20;;;13.20;99.90;;;;;;8346923;28;20272;-69
2022/08/30 05:18:35;;;;;;;9.60;6.83;;;13.40;99.90;;;;;;8348914;28;20205;-71
2022/08/30 05:22:38;;;;;;;9.73;7.17;;;13.60;99.90;;;;;;8345371;28;20191;-69
2022/08/30 05:26:39;;;;;;;11.37;6.80;;;13.80;99.90;;;;;;8358939;28;20245;-69
2022/08/30 05:30:41;;;;;;;10.53;7.87;;;14.10;99.90;;;;;;8350295;28;20299;-70
2022/08/30 05:34:41;;;;;;;9.00;7.30;;;14.20;99.90;;;;;;8347610;28;20235;-69
2022/08/30 05:38:42;;;;;;;8.90;7.57;;;14.40;99.90;;;;;;8347229;28;20269;-69
2022/08/30 05:42:45;;;;;;;11.07;7.23;;;14.50;99.90;;;;;;8346956;28;20573;-69
2022/08/30 05:46:46;;;;;;;9.20;6.87;;;14.70;99.90;;;;;;8379996;28;20178;-69
2022/08/30 05:50:47;;;;;;;9.00;6.63;;;14.80;99.90;;;;;;8347455;28;20213;-70
2022/08/30 05:54:54;;;;;;;8.93;6.40;;;14.90;99.90;;;;;;8346986;28;20186;-69
2022/08/30 05:58:55;;;;;;;8.00;7.03;;;15.30;99.90;;;;;;8346139;28;20230;-69
2022/08/30 06:02:59;;;;;;;10.27;7.20;;;15.50;99.90;;;;;;8344546;28;20188;-69
2022/08/30 06:07:00;;;;;;;8.57;6.50;;;15.60;99.90;;;;;;8382268;28;20185;-70
2022/08/30 06:11:00;;;;;;;6.90;6.20;;;15.60;99.90;;;;;;8343260;28;20217;-69
2022/08/30 06:15:01;;;;;;;11.97;7.20;;;15.80;99.90;;;;;;8347784;28;20182;-69
2022/08/30 06:19:02;;;;;;;9.17;6.70;;;16.10;99.90;;;;;;8346180;28;20205;-70
2022/08/30 06:23:03;;;;;;;6.73;6.03;;;16.70;99.90;;;;;;8347355;28;20188;-70
2022/08/30 06:27:04;;;;;;;9.60;7.03;;;17.00;99.90;;;;;;8346400;28;20189;-70
2022/08/30 06:31:06;;;;;;;8.73;7.03;;;17.00;99.90;;;;;;8348777;28;20494;-70
2022/08/30 06:35:07;;;;;;;8.10;7.00;;;17.10;99.90;;;;;;8345020;28;20189;-70
2022/08/30 06:39:09;;;;;;;7.37;6.13;;;17.00;1.00;;;;;;8344382;28;20209;-73
2022/08/30 06:43:10;;;;;;;11.97;7.70;;;17.10;21.20;;;;;;8345506;28;20202;-70
2022/08/30 06:47:11;;;;;;;8.47;7.07;;;17.70;58.80;;;;;;8345902;28;20216;-69
2022/08/30 06:51:11;;;;;;;8.07;6.30;;;18.20;23.50;;;;;;8345503;28;20218;-70
2022/08/30 06:55:17;;;;;;;7.60;6.87;;;18.50;99.90;;;;;;8346927;28;20186;-70
2022/08/30 06:59:18;;;;;;;9.50;7.80;;;18.60;99.90;;;;;;8348756;28;20197;-70
2022/08/30 07:03:19;;;;;;;8.27;7.00;;;18.60;99.90;;;;;;8359102;28;20308;-70
2022/08/30 07:07:20;;;;;;;12.57;9.00;;;18.30;1.00;;;;;;8344866;28;20189;-69
2022/08/30 07:11:30;;;;;;;11.40;8.60;;;18.10;99.90;;;;;;8362046;28;20580;-70
2022/08/30 07:15:31;;;;;;;11.03;8.33;;;18.10;99.90;;;;;;8347407;28;20193;-71
2022/08/30 07:19:32;;;;;;;13.10;9.33;;;18.40;1.00;;;;;;8346846;28;20288;-70
2022/08/30 07:23:36;;;;;;;10.13;7.70;;;18.70;99.90;;;;;;8342651;28;20213;-70
2022/08/30 07:27:37;;;;;;;12.20;7.57;;;18.70;99.90;;;;;;8346586;28;20269;-70
2022/08/30 07:31:41;;;;;;;10.17;7.80;;;19.00;1.00;;;;;;8345221;28;20206;-70
2022/08/30 07:35:42;;;;;;;11.10;8.30;;;19.00;27.50;;;;;;8345105;28;20182;-70
2022/08/30 07:39:44;;;;;;;8.47;7.20;;;18.90;50.20;;;;;;8339313;28;20204;-70
2022/08/30 07:43:46;;;;;;;9.40;7.73;;;18.90;99.90;;;;;;8346109;28;20186;-70
2022/08/30 07:47:47;;;;;;;8.53;5.70;;;19.00;77.10;;;;;;8348034;28;20193;-70
2022/08/30 07:51:47;;;;;;;7.00;5.80;;;19.20;11.90;;;;;;8382662;28;20209;-70
2022/08/30 07:55:48;;;;;;;6.17;5.30;;;19.90;99.90;;;;;;8356375;28;20185;-70
2022/08/30 07:59:50;;;;;;;6.17;4.90;;;20.60;99.90;;;;;;8351489;28;20189;-68
2022/08/30 08:03:57;;;;;;;5.27;4.27;;;21.00;1.00;;;;;;8351529;28;20225;-70
2022/08/30 08:07:58;;;;;;;3.93;3.57;;;21.00;1.00;;;;;;8352052;28;20205;-70
2022/08/30 08:11:59;;;;;;;4.60;4.00;;;21.10;1.00;;;;;;8345221;28;20285;-70
2022/08/30 08:16:00;;;;;;;6.03;4.20;;;21.40;1.00;;;;;;8351020;28;20435;-70
2022/08/30 08:20:01;;;;;;;5.97;5.00;;;21.70;99.90;;;;;;8349746;28;20502;-70
2022/08/30 08:24:03;;;;;;;4.97;4.47;;;21.10;99.90;;;;;;8348941;28;20192;-70
2022/08/30 08:28:04;;;;;;;7.63;5.63;;;20.40;1.00;;;;;;8352728;28;20190;-71
2022/08/30 08:32:05;;;;;;;5.07;4.47;;;20.30;1.00;;;;;;8352236;28;20224;-70
2022/08/30 08:36:06;;;;;;;4.93;4.00;;;20.00;34.50;;;;;;8348568;28;20185;-70
2022/08/30 08:40:09;;;;;;;4.37;3.97;;;19.90;33.90;;;;;;8349616;28;20277;-72
2022/08/30 08:44:24;;;;;;;5.20;3.90;;;20.20;1.00;;;;;;8351058;28;20200;-70
2022/08/30 08:48:33;;;;;;;4.63;3.60;;;20.00;99.90;;;;;;8352135;28;20280;-70
2022/08/30 08:57:19;;;;;;;4.37;3.97;;;20.30;1.00;;;;;;8348545;28;20208;-70
2022/08/30 09:01:29;;;;;;;4.83;4.33;;;20.30;1.00;;;;;;8346416;28;20189;-70
2022/08/30 09:05:39;;;;;;;4.37;3.93;;;20.20;33.60;;;;;;8355272;28;20186;-70
2022/08/30 09:09:41;;;;;;;4.83;4.13;;;20.00;1.00;;;;;;8348018;28;20244;-70
2022/08/30 09:13:42;;;;;;;3.70;3.40;;;20.00;1.00;;;;;;8349548;28;20217;-70
2022/08/30 09:18:05;;;;;;;5.70;3.23;;;20.50;1.00;;;;;;8365586;28;20283;-71
2022/08/30 09:22:13;;;;;;;4.60;3.60;;;20.90;1.00;;;;;;8345434;28;20239;-70
2022/08/30 09:26:26;;;;;;;4.43;4.03;;;21.30;99.90;;;;;;8350582;28;20189;-70
2022/08/30 09:30:30;;;;;;;3.83;3.40;;;21.60;99.90;;;;;;8351216;28;20255;-69
2022/08/30 09:34:32;;;;;;;6.73;3.30;;;21.90;99.90;;;;;;8344108;28;20177;-70
2022/08/30 09:38:33;;;;;;;4.37;3.80;;;22.10;99.90;;;;;;8344416;28;20183;-70
2022/08/30 09:42:57;;;;;;;2.87;2.43;;;22.70;99.90;;;;;;8349676;28;20186;-70
2022/08/30 09:47:00;;;;;;;3.93;2.50;;;23.30;99.90;;;;;;8379572;28;20280;-69
2022/08/30 09:51:09;;;;;;;4.13;2.97;;;23.70;99.90;;;;;;8363409;28;20267;-70
2022/08/30 09:55:22;;;;;;;2.97;2.60;;;23.90;99.90;;;;;;8349138;28;20186;-70
2022/08/30 09:59:29;;;;;;;4.23;2.97;;;24.60;70.30;;;;;;8362434;28;20194;-70
2022/08/30 10:03:50;;;;;;;5.43;3.40;;;24.20;39.30;;;;;;8347302;28;20190;-70
2022/08/30 10:08:16;;;;;;;3.80;2.90;;;23.50;99.90;;;;;;8360373;28;20209;-70
2022/08/30 10:12:30;;;;;;;3.13;2.83;;;23.50;86.60;;;;;;8345706;28;20237;-70
2022/08/30 10:16:33;;;;;;;3.47;3.17;;;23.00;99.90;;;;;;8363421;28;20210;-70
2022/08/30 10:20:53;;;;;;;3.37;2.40;;;23.10;93.20;;;;;;8345454;28;20194;-70
2022/08/30 10:25:16;;;;;;;3.10;2.80;;;23.00;99.90;;;;;;8343098;28;20197;-70
2022/08/30 10:29:30;;;;;;;5.50;2.83;;;22.80;99.90;;;;;;8347837;28;20217;-69
2022/08/30 10:33:41;;;;;;;2.80;2.40;;;22.50;99.90;;;;;;8335626;28;20182;-69
2022/08/30 10:37:49;;;;;;;3.20;2.90;;;22.20;99.90;;;;;;8344976;28;20177;-70
2022/08/30 10:41:57;;;;;;;3.07;2.57;;;22.10;99.90;;;;;;8378239;28;20511;-70
2022/08/30 10:46:04;;;;;;;2.50;2.10;;;22.30;99.90;;;;;;8355125;28;20235;-70
2022/08/30 10:50:20;;;;;;;2.43;1.93;;;22.80;99.90;;;;;;8347418;28;20296;-69
2022/08/30 10:54:47;;;;;;;4.33;1.97;;;23.30;47.40;;;;;;8358162;28;20185;-70
2022/08/30 10:58:48;;;;;;;2.00;1.80;;;24.20;8.70;;;;;;8343554;28;20188;-70
2022/08/30 11:02:50;;;;;;;4.50;1.80;;;25.00;1.00;;;;;;8346433;28;20185;-70
2022/08/30 11:07:22;;;;;;;2.72;1.58;;;25.60;1.00;;;;;;8343912;28;20178;-69
2022/08/30 11:11:55;;;;;;;1.48;1.38;;;25.40;1.00;;;;;;8335830;28;20211;-69
2022/08/30 11:16:17;;;;;;;1.60;1.40;;;24.60;1.00;;;;;;8348022;28;20182;-70
2022/08/30 11:20:48;;;;;;;1.40;1.30;;;23.50;1.00;;;;;;8347860;28;20212;-69
2022/08/30 11:25:10;;;;;;;1.87;1.67;;;23.40;1.00;;;;;;8352714;28;20185;-69
2022/08/30 11:29:43;;;;;;;1.50;1.40;;;24.10;1.00;;;;;;8351759;28;20240;-69
2022/08/30 11:33:54;;;;;;;1.97;1.47;;;24.30;1.00;;;;;;8353473;28;20255;-70
2022/08/30 11:37:55;;;;;;;2.10;1.50;;;23.90;8.00;;;;;;8348081;28;20182;-69
2022/08/30 11:42:20;;;;;;;1.93;1.47;;;23.60;24.80;;;;;;8353234;28;20190;-68
2022/08/30 11:46:27;;;;;;;1.90;1.47;;;23.50;52.30;;;;;;8350418;28;20189;-69
2022/08/30 11:50:53;;;;;;;1.87;1.40;;;23.80;24.40;;;;;;8352643;28;20313;-69
2022/08/30 11:55:36;;;;;;;1.73;1.57;;;23.90;14.20;;;;;;8381383;28;20190;-69
2022/08/30 12:00:01;;;;;;;2.17;1.50;;;24.20;22.80;;;;;;8351131;28;20335;-68
2022/08/30 12:04:20;;;;;;;1.87;1.70;;;24.30;8.00;;;;;;8348581;28;20185;-69
2022/08/30 12:08:32;;;;;;;2.70;1.77;;;24.20;1.00;;;;;;8342158;28;20276;-69
2022/08/30 12:12:46;;;;;;;3.40;1.80;;;23.90;10.00;;;;;;8338411;28;20264;-69
2022/08/30 12:21:16;;;;;;;3.67;2.03;;;24.40;1.00;;;;;;8352923;28;20256;-69
2022/08/30 12:25:30;;;;;;;1.73;1.60;;;24.60;1.00;;;;;;8339962;28;20236;-70
2022/08/30 12:29:31;;;;;;;2.17;1.43;;;24.80;1.00;;;;;;8363490;28;20211;-69
2022/08/30 12:33:40;;;;;;;1.07;0.97;;;24.30;1.00;;;;;;8346788;28;20181;-69
2022/08/30 12:37:40;;;;;;;1.50;1.10;;;23.80;1.00;;;;;;8381173;28;20301;-68
2022/08/30 12:41:43;;;;;;;1.40;1.30;;;23.80;1.00;;;;;;8348780;28;20189;-69
2022/08/30 12:45:47;;;;;;;1.07;0.90;;;23.90;1.00;;;;;;8351174;28;20514;-69
2022/08/30 12:49:50;;;;;;;2.17;1.10;;;23.90;1.00;;;;;;8347397;28;20198;-70
2022/08/30 12:53:51;;;;;;;4.53;1.57;;;24.00;1.00;;;;;;8349181;28;20174;-70
2022/08/30 12:58:08;;;;;;;1.57;1.30;;;23.50;1.00;;;;;;8347217;28;20181;-69
2022/08/30 13:02:16;;;;;;;1.30;1.20;;;23.30;1.00;;;;;;8348997;28;20184;-70
2022/08/30 13:06:42;;;;;;;2.13;1.30;;;23.20;1.00;;;;;;8351132;28;20186;-69
2022/08/30 13:11:23;;;;;;;2.20;1.17;;;23.10;1.00;;;;;;8365094;28;20232;-69
2022/08/30 13:15:31;;;;;;;1.40;1.10;;;22.70;1.00;;;;;;8346499;28;20229;-69
2022/08/30 13:19:58;;;;;;;1.43;1.30;;;22.90;1.00;;;;;;8348492;28;20220;-69
2022/08/30 13:24:00;;;;;;;1.50;0.90;;;23.20;1.00;;;;;;8342703;28;20287;-69
2022/08/30 13:28:01;;;;;;;1.70;1.47;;;23.10;1.00;;;;;;8370501;28;20178;-70
2022/08/30 13:32:02;;;;;;;1.47;1.10;;;23.20;1.00;;;;;;8346819;28;20212;-69
2022/08/30 13:36:03;;;;;;;1.40;1.20;;;23.30;1.00;;;;;;8348599;28;20178;-69
2022/08/30 13:40:04;;;;;;;1.30;1.20;;;23.60;1.00;;;;;;8347466;28;20188;-70
2022/08/30 13:44:05;;;;;;;1.90;1.40;;;23.30;1.00;;;;;;8344684;28;20178;-71
2022/08/30 13:48:09;;;;;;;2.93;1.10;;;23.00;1.00;;;;;;8347501;28;20196;-70
2022/08/30 13:52:15;;;;;;;1.40;1.30;;;22.90;1.00;;;;;;8346337;28;20206;-69
2022/08/30 13:56:16;;;;;;;2.03;1.10;;;22.90;1.00;;;;;;8361107;28;20182;-69
2022/08/30 14:00:20;;;;;;;1.33;1.10;;;23.00;1.00;;;;;;8362686;28;20182;-69
2022/08/30 14:04:21;;;;;;;1.40;1.30;;;23.40;1.00;;;;;;8345258;28;20185;-69
2022/08/30 14:08:28;;;;;;;1.60;1.30;;;23.50;1.00;;;;;;8347086;28;20202;-69
2022/08/30 14:12:29;;;;;;;1.47;1.33;;;23.40;1.00;;;;;;8344607;28;20236;-69
2022/08/30 14:16:30;;;;;;;1.30;1.10;;;23.40;1.00;;;;;;8344338;28;20348;-69
2022/08/30 14:20:34;;;;;;;1.83;1.17;;;23.40;1.00;;;;;;8346219;28;20330;-70
2022/08/30 14:24:34;;;;;;;1.80;1.30;;;23.50;1.00;;;;;;8346908;28;20220;-69
2022/08/30 14:28:35;;;;;;;2.67;2.33;;;23.60;1.00;;;;;;8345910;28;20185;-68
2022/08/30 14:32:36;;;;;;;1.93;1.60;;;24.00;1.00;;;;;;8346758;28;20213;-69
2022/08/30 14:36:40;;;;;;;2.30;1.90;;;24.10;1.00;;;;;;8347476;28;20185;-68
2022/08/30 14:40:41;;;;;;;2.13;1.80;;;23.80;1.00;;;;;;8373048;28;20183;-69
2022/08/30 14:44:41;;;;;;;2.00;1.60;;;23.50;1.00;;;;;;8344856;28;20189;-69
2022/08/30 14:48:42;;;;;;;2.47;1.80;;;23.10;1.00;;;;;;8345705;28;20188;-68
2022/08/30 14:52:43;;;;;;;3.20;1.97;;;22.90;17.80;;;;;;8343680;28;20579;-69
2022/08/30 14:56:47;;;;;;;1.70;1.50;;;22.80;1.00;;;;;;8342101;28;20235;-69
2022/08/30 15:00:50;;;;;;;1.50;1.30;;;22.90;1.00;;;;;;8363606;28;20196;-67
2022/08/30 15:04:51;;;;;;;3.10;2.50;;;23.00;1.00;;;;;;8342954;28;20281;-69
2022/08/30 15:08:53;;;;;;;1.83;1.63;;;23.20;1.00;;;;;;8344498;28;20182;-67
2022/08/30 15:12:54;;;;;;;3.00;1.30;;;23.10;1.00;;;;;;8376490;28;20209;-68
2022/08/30 15:16:57;;;;;;;3.10;1.57;;;23.10;1.00;;;;;;8345363;28;20309;-68
2022/08/30 15:20:57;;;;;;;1.47;1.37;;;23.30;1.00;;;;;;8349736;28;20268;-68
2022/08/30 15:25:00;;;;;;;1.67;1.50;;;23.40;1.00;;;;;;8346279;28;20193;-68
2022/08/30 15:29:02;;;;;;;4.03;1.53;;;23.40;1.00;;;;;;8341508;28;20206;-67
2022/08/30 15:33:03;;;;;;;1.63;1.40;;;23.10;23.90;;;;;;8344863;28;20525;-67
2022/08/30 15:37:03;;;;;;;1.77;1.67;;;22.80;8.10;;;;;;8347206;28;20189;-67
2022/08/30 15:41:08;;;;;;;1.20;1.10;;;22.70;22.20;;;;;;8343710;28;20193;-68
2022/08/30 15:45:09;;;;;;;2.07;1.50;;;22.60;5.80;;;;;;8345643;28;20208;-68
2022/08/30 15:49:13;;;;;;;3.70;3.27;;;22.70;50.40;;;;;;8345385;28;20178;-68
2022/08/30 15:53:14;;;;;;;3.00;2.50;;;22.70;28.10;;;;;;8342683;28;20193;-68
2022/08/30 15:57:15;;;;;;;3.30;2.20;;;22.80;20.00;;;;;;8343536;28;20182;-68
2022/08/30 16:01:16;;;;;;;2.30;1.50;;;22.80;12.70;;;;;;8345537;28;20498;-72
2022/08/30 16:05:18;;;;;;;2.50;1.80;;;22.70;31.70;;;;;;8344736;28;20234;-67
2022/08/30 16:09:19;;;;;;;1.87;1.63;;;22.70;8.00;;;;;;8346797;28;20236;-68
2022/08/30 16:13:20;;;;;;;3.60;1.60;;;22.70;18.30;;;;;;8345861;28;20197;-68
2022/08/30 16:17:22;;;;;;;2.20;1.97;;;22.70;43.30;;;;;;8347122;28;20221;-67
2022/08/30 16:21:26;;;;;;;4.63;4.13;;;22.60;44.70;;;;;;8347311;28;20182;-68
2022/08/30 16:25:27;;;;;;;3.30;3.00;;;22.60;59.60;;;;;;8346054;28;20182;-68
2022/08/30 16:29:28;;;;;;;2.60;1.93;;;22.40;34.20;;;;;;8348161;28;20310;-68
2022/08/30 16:33:30;;;;;;;4.83;3.20;;;22.30;28.10;;;;;;8342619;28;20186;-67
2022/08/30 16:37:31;;;;;;;6.30;4.83;;;22.20;25.60;;;;;;8346432;28;20173;-67
2022/08/30 16:41:31;;;;;;;4.23;3.40;;;21.90;99.50;;;;;;8365510;28;20182;-68
2022/08/30 16:45:32;;;;;;;2.77;2.07;;;21.60;99.90;;;;;;8349146;28;20213;-68
2022/08/30 16:49:33;;;;;;;15.40;8.47;;;21.50;99.90;;;;;;8345834;28;20218;-68
2022/08/30 16:53:35;;;;;;;7.67;5.93;;;21.30;99.90;;;;;;8344616;28;20186;-68
2022/08/30 16:57:36;;;;;;;7.63;5.67;;;21.30;99.90;;;;;;8349644;28;20189;-68
2022/08/30 17:01:37;;;;;;;15.97;10.60;;;21.30;99.90;;;;;;8349349;28;20225;-67
2022/08/30 17:05:40;;;;;;;19.47;11.63;;;21.10;99.90;;;;;;8346656;28;20201;-68
2022/08/30 17:09:40;;;;;;;3.93;2.93;;;20.90;99.90;;;;;;8348645;28;20218;-68
2022/08/30 17:13:41;;;;;;;3.93;3.00;;;20.60;99.90;;;;;;8346195;28;20217;-67
2022/08/30 17:17:42;;;;;;;2.90;1.90;;;20.30;99.90;;;;;;8348448;28;20202;-67
2022/08/30 17:21:43;;;;;;;2.97;1.90;;;20.00;99.90;;;;;;8349761;28;20253;-68
2022/08/30 17:25:46;;;;;;;4.10;1.93;;;19.90;99.90;;;;;;8347163;28;20190;-69
2022/08/30 17:29:47;;;;;;;6.20;3.77;;;19.80;99.90;;;;;;8362827;28;20213;-68
2022/08/30 17:33:48;;;;;;;3.57;2.00;;;19.70;99.90;;;;;;8345389;28;20193;-68
2022/08/30 17:37:52;;;;;;;2.90;2.20;;;19.70;99.90;;;;;;8347061;28;20193;-68
2022/08/30 17:41:53;;;;;;;2.50;1.57;;;19.60;99.90;;;;;;8346730;28;20194;-68
2022/08/30 17:46:05;;;;;;;4.23;2.53;;;19.40;1.00;;;;;;8345043;28;20183;-67
2022/08/30 17:50:07;;;;;;;4.43;1.90;;;19.30;1.00;;;;;;8346435;28;20259;-71
2022/08/30 17:54:10;;;;;;;4.50;2.40;;;19.20;1.00;;;;;;8347029;28;20206;-68
2022/08/30 17:58:11;;;;;;;3.47;1.87;;;19.10;1.00;;;;;;8343459;28;20201;-68
2022/08/30 18:02:13;;;;;;;3.67;1.90;;;19.00;1.00;;;;;;8349834;28;20190;-68
2022/08/30 18:06:14;;;;;;;2.83;2.20;;;18.80;90.70;;;;;;8343880;28;20316;-67
2022/08/30 18:10:15;;;;;;;3.80;2.97;;;18.70;99.90;;;;;;8347809;28;20205;-68
2022/08/30 18:14:16;;;;;;;4.90;3.37;;;18.50;99.90;;;;;;8344604;28;20212;-68
2022/08/30 18:18:17;;;;;;;3.77;2.67;;;18.40;99.90;;;;;;8343562;28;20206;-68
2022/08/30 18:22:18;;;;;;;2.87;2.30;;;18.20;99.90;;;;;;8349092;28;20190;-68
2022/08/30 18:26:19;;;;;;;2.30;1.83;;;18.00;1.00;;;;;;8344116;28;20185;-68
2022/08/30 18:30:20;;;;;;;2.80;1.97;;;17.80;1.00;;;;;;8343589;28;20351;-68
2022/08/30 18:34:21;;;;;;;3.60;2.00;;;17.70;1.00;;;;;;8345843;28;20181;-67
2022/08/30 18:38:23;;;;;;;3.30;2.40;;;17.50;99.90;;;;;;8346333;28;20190;-67
2022/08/30 18:42:24;;;;;;;1.90;1.40;;;17.30;99.90;;;;;;8348133;28;20190;-68
2022/08/30 18:46:25;;;;;;;4.70;1.40;;;17.10;1.00;;;;;;8379764;28;20209;-67
2022/08/30 18:50:27;;;;;;;2.43;1.30;;;16.90;99.90;;;;;;8346093;28;20236;-67
2022/08/30 18:54:28;;;;;;;2.67;1.40;;;16.70;99.90;;;;;;8341519;28;20186;-68
2022/08/30 18:58:29;;;;;;;2.80;1.30;;;16.40;1.00;;;;;;8341808;28;20269;-67
2022/08/30 19:02:30;;;;;;;2.13;1.37;;;16.20;99.90;;;;;;8343825;28;20190;-67
2022/08/30 19:06:31;;;;;;;1.63;1.20;;;16.10;99.90;;;;;;8342033;28;20193;-68
2022/08/30 19:10:33;;;;;;;1.37;1.03;;;15.90;1.00;;;;;;8348712;28;20206;-72
2022/08/30 19:14:34;;;;;;;1.40;1.20;;;15.80;1.00;;;;;;8343490;28;20209;-69
2022/08/30 19:18:35;;;;;;;1.23;1.13;;;15.60;99.90;;;;;;8345301;28;20201;-73
2022/08/30 19:22:37;;;;;;;1.50;1.30;;;15.50;2.20;;;;;;8344318;28;20192;-67
2022/08/30 19:26:39;;;;;;;2.20;1.10;;;15.40;99.90;;;;;;8343997;28;20201;-68
2022/08/30 19:30:40;;;;;;;1.30;1.20;;;15.20;1.00;;;;;;8343643;28;20304;-67
2022/08/30 19:34:41;;;;;;;1.93;1.33;;;15.10;99.90;;;;;;8346248;28;20189;-67
2022/08/30 19:38:43;;;;;;;1.87;1.40;;;15.00;99.90;;;;;;8344762;28;20216;-67
2022/08/30 19:42:44;;;;;;;2.30;1.37;;;14.90;1.00;;;;;;8347480;28;20189;-67
2022/08/30 19:46:45;;;;;;;2.43;1.20;;;14.80;99.90;;;;;;8353880;28;20186;-66
2022/08/30 19:50:46;;;;;;;1.40;1.23;;;14.80;1.00;;;;;;8346044;28;20256;-67
2022/08/30 19:55:00;;;;;;;2.47;1.63;;;14.60;1.00;;;;;;8352118;28;20599;-67
2022/08/30 19:59:01;;;;;;;1.40;1.30;;;14.50;99.90;;;;;;8351522;28;20187;-67
2022/08/30 20:03:02;;;;;;;2.27;1.60;;;14.40;99.90;;;;;;8348223;28;20436;-69
2022/08/30 20:07:03;;;;;;;2.63;2.00;;;14.30;1.00;;;;;;8351504;28;20186;-69
2022/08/30 20:11:05;;;;;;;4.10;2.10;;;14.20;1.00;;;;;;8348390;28;20634;-68
2022/08/30 20:15:09;;;;;;;2.30;1.80;;;14.10;1.00;;;;;;8382625;28;20190;-67
2022/08/30 20:19:14;;;;;;;2.17;1.60;;;14.00;1.00;;;;;;8350846;28;20196;-66
2022/08/30 20:23:15;;;;;;;2.20;1.60;;;13.90;99.90;;;;;;8351022;28;20197;-67
2022/08/30 20:27:17;;;;;;;1.50;1.40;;;13.90;99.90;;;;;;8341451;28;20193;-67
2022/08/30 20:31:18;;;;;;;1.47;1.37;;;13.80;99.90;;;;;;8349615;28;20214;-67
2022/08/30 20:35:19;;;;;;;3.27;1.60;;;13.70;99.90;;;;;;8348755;28;20193;-66
2022/08/30 20:39:20;;;;;;;3.23;1.40;;;13.70;99.90;;;;;;8347727;28;20174;-67
2022/08/30 20:43:24;;;;;;;1.40;1.23;;;13.70;99.90;;;;;;8351462;28;20185;-67
2022/08/30 20:47:25;;;;;;;1.40;1.20;;;13.60;99.90;;;;;;8347577;28;20190;-67
2022/08/30 20:51:26;;;;;;;2.03;1.50;;;13.60;99.90;;;;;;8348668;28;20213;-67
2022/08/30 20:55:27;;;;;;;2.43;1.43;;;13.50;99.90;;;;;;8345430;28;20182;-67
2022/08/30 20:59:28;;;;;;;2.40;1.60;;;13.40;99.90;;;;;;8351240;28;20186;-73
2022/08/30 21:03:29;;;;;;;4.93;1.47;;;13.40;99.90;;;;;;8344934;28;20209;-67
2022/08/30 21:07:30;;;;;;;4.03;1.63;;;13.40;99.90;;;;;;8347708;28;20186;-67
2022/08/30 21:11:32;;;;;;;2.53;1.70;;;13.40;99.90;;;;;;8352524;28;20218;-67
2022/08/30 21:15:33;;;;;;;2.00;1.50;;;13.40;99.90;;;;;;8348192;28;20178;-67
2022/08/30 21:19:35;;;;;;;2.10;1.40;;;13.50;99.90;;;;;;8348889;28;20534;-67
2022/08/30 21:23:36;;;;;;;1.83;1.30;;;13.50;99.90;;;;;;8348178;28;20214;-67